Terminal Aerodrome Forecast
Issued by NWS Cleveland, OH

Home | Current Version | Previous Version | Graphics & Text | Print | Product List | Glossary On
Versions: 1 2 3 4 5 6 7 8 9 10 11 12 13
000
FTUS41 KCLE 271723
TAFMFD
TAF
KMFD 271723Z 2718/2818 34007KT P6SM BKN035
     FM280100 VRB03KT P6SM FEW040
      TEMPO 2810/2812 3SM BR
     FM281500 15005KT P6SM FEW040=

USA.gov is the U.S. government's official web portal to all federal, state and local government web resources and services.